createdAt,value
2019-02-26T00:02:17.322Z,17.10
2019-02-26T00:04:49.132Z,18.87
2019-02-26T00:07:20.258Z,19.75
2019-02-26T00:09:51.229Z,17.77
2019-02-26T00:12:21.912Z,17.85
2019-02-26T00:14:50.169Z,17.65
2019-02-26T00:17:20.205Z,17.42
2019-02-26T00:19:49.978Z,16.35
2019-02-26T00:22:18.765Z,18.35
2019-02-26T00:24:47.544Z,18.05
2019-02-26T00:27:16.346Z,18.85
2019-02-26T00:29:46.460Z,17.37
2019-02-26T00:32:16.155Z,16.85
2019-02-26T00:34:46.144Z,18.48
2019-02-26T00:37:14.905Z,16.65
2019-02-26T00:39:45.350Z,17.02
2019-02-26T00:42:14.221Z,17.12
2019-02-26T00:44:43.021Z,16.80
2019-02-26T00:47:11.803Z,17.42
2019-02-26T00:49:44.162Z,17.27
2019-02-26T00:52:15.550Z,18.30
2019-02-26T00:54:44.000Z,18.62
2019-02-26T00:57:13.959Z,18.95
2019-02-26T00:59:44.076Z,18.35
2019-02-26T01:02:13.439Z,16.70
2019-02-26T01:04:44.700Z,18.73
2019-02-26T01:07:12.838Z,18.65
2019-02-26T01:09:41.607Z,17.40
2019-02-26T01:12:13.221Z,17.55
2019-02-26T01:14:41.939Z,17.95
2019-02-26T01:17:14.824Z,18.27
2019-02-26T01:19:44.543Z,17.15
2019-02-26T01:22:13.336Z,17.50
2019-02-26T01:24:42.175Z,17.75
2019-02-26T01:27:13.585Z,16.87
2019-02-26T01:29:44.527Z,18.23
2019-02-26T01:32:13.793Z,17.62
2019-02-26T01:34:44.991Z,17.80
2019-02-26T01:37:13.881Z,19.32
2019-02-26T01:39:44.694Z,17.10
2019-02-26T01:42:17.397Z,20.92
2019-02-26T01:44:44.631Z,18.37
2019-02-26T01:47:13.530Z,18.73
2019-02-26T01:49:44.072Z,17.85
2019-02-26T01:52:14.971Z,17.27
2019-02-26T01:54:43.411Z,20.08
2019-02-26T01:57:12.181Z,17.00
2019-02-26T01:59:40.950Z,18.50
2019-02-26T02:02:12.268Z,18.85
2019-02-26T02:04:41.195Z,18.12
2019-02-26T02:07:10.785Z,18.25
2019-02-26T02:09:39.584Z,18.45
2019-02-26T02:12:29.649Z,19.65
2019-02-26T02:14:58.252Z,19.12
2019-02-26T02:17:28.830Z,17.37
2019-02-26T02:19:57.624Z,18.25
2019-02-26T02:22:26.420Z,21.15
2019-02-26T02:24:55.670Z,17.98
2019-02-26T02:27:27.286Z,15.48
2019-02-26T02:29:57.655Z,17.02
2019-02-26T02:32:28.756Z,18.60
2019-02-26T02:35:00.517Z,18.55
2019-02-26T02:37:30.019Z,19.57
2019-02-26T02:39:58.489Z,18.80
2019-02-26T02:42:27.327Z,19.77
2019-02-26T02:44:56.147Z,19.77
2019-02-26T02:47:30.834Z,20.60
2019-02-26T02:49:58.692Z,20.10
2019-02-26T02:52:29.852Z,20.95
2019-02-26T02:54:58.551Z,22.45
2019-02-26T02:57:29.460Z,19.82
2019-02-26T02:59:59.682Z,18.48
2019-02-26T03:02:28.921Z,18.48
2019-02-26T03:04:57.707Z,18.10
2019-02-26T03:07:28.844Z,20.02
2019-02-26T03:09:58.017Z,20.40
2019-02-26T03:12:27.674Z,19.12
2019-02-26T03:14:58.891Z,18.50
2019-02-26T03:17:27.253Z,17.30
2019-02-26T03:19:58.705Z,19.77
2019-02-26T03:22:27.272Z,20.62
2019-02-26T03:24:57.597Z,18.20
2019-02-26T03:27:28.374Z,17.25
2019-02-26T03:30:01.933Z,16.62
2019-02-26T03:32:31.764Z,18.60
2019-02-26T03:35:04.369Z,20.25
2019-02-26T03:37:31.883Z,17.98
2019-02-26T03:40:03.690Z,19.35
2019-02-26T03:42:33.470Z,18.50
2019-02-26T03:45:03.870Z,17.77
2019-02-26T03:47:33.886Z,19.60
2019-02-26T03:50:02.738Z,18.48
2019-02-26T03:52:32.239Z,20.43
2019-02-26T03:55:03.498Z,19.35
2019-02-26T03:57:32.101Z,18.73
2019-02-26T04:00:05.658Z,22.82
2019-02-26T04:02:31.968Z,19.55
2019-02-26T04:05:02.989Z,18.30
2019-02-26T04:07:33.396Z,16.90
2019-02-26T04:10:02.175Z,19.00
2019-02-26T04:12:35.822Z,21.00
2019-02-26T04:15:02.673Z,20.08
2019-02-26T04:17:33.678Z,19.17
2019-02-26T04:20:05.361Z,18.73
2019-02-26T04:22:39.187Z,20.95
2019-02-26T04:25:31.413Z,19.55
2019-02-26T04:28:08.161Z,19.87
2019-02-26T04:31:18.001Z,18.45
2019-02-26T04:34:25.845Z,20.32
2019-02-26T04:37:07.286Z,17.60
2019-02-26T04:40:04.956Z,21.50
2019-02-26T04:43:12.977Z,21.93
2019-02-26T04:46:13.621Z,22.00
2019-02-26T04:48:42.903Z,19.12
2019-02-26T04:51:11.777Z,21.42
2019-02-26T04:53:40.676Z,19.45
2019-02-26T04:56:12.830Z,17.85
2019-02-26T04:58:42.566Z,20.15
2019-02-26T05:01:12.977Z,19.48
2019-02-26T05:03:42.591Z,21.48
2019-02-26T05:06:11.450Z,19.87
2019-02-26T05:08:43.170Z,19.80
2019-02-26T05:11:19.049Z,20.12
2019-02-26T05:13:44.333Z,18.27
2019-02-26T05:16:14.321Z,21.33
2019-02-26T05:18:45.893Z,24.60
2019-02-26T05:21:14.005Z,19.90
2019-02-26T05:23:42.862Z,18.45
2019-02-26T05:26:15.250Z,19.07
2019-02-26T05:28:44.217Z,20.30
2019-02-26T05:31:15.115Z,21.62
2019-02-26T05:33:46.343Z,19.82
2019-02-26T05:36:17.122Z,23.20
2019-02-26T05:38:46.257Z,24.63
2019-02-26T05:41:15.150Z,24.87
2019-02-26T05:43:49.331Z,22.07
2019-02-26T05:46:18.859Z,24.23
2019-02-26T05:48:48.464Z,27.27
2019-02-26T05:51:16.971Z,29.82
2019-02-26T05:53:56.459Z,22.82
2019-02-26T05:56:54.506Z,18.10
2019-02-26T05:59:38.756Z,20.85
2019-02-26T06:02:07.527Z,23.70
2019-02-26T06:04:38.393Z,21.95
2019-02-26T06:07:07.124Z,21.73
2019-02-26T06:09:35.911Z,25.05
2019-02-26T06:12:05.086Z,21.48
2019-02-26T06:14:36.129Z,21.57
2019-02-26T06:17:04.925Z,24.63
2019-02-26T06:19:44.962Z,22.77
2019-02-26T06:22:16.861Z,22.58
2019-02-26T06:24:45.234Z,24.67
2019-02-26T06:27:18.275Z,23.22
2019-02-26T06:29:45.756Z,24.60
2019-02-26T06:32:15.735Z,24.25
2019-02-26T06:34:45.003Z,23.92
2019-02-26T06:37:17.135Z,22.85
2019-02-26T06:39:50.583Z,22.10
2019-02-26T06:42:18.082Z,23.40
2019-02-26T06:44:49.451Z,24.70
2019-02-26T06:47:18.572Z,22.93
2019-02-26T06:49:50.224Z,23.70
2019-02-26T06:52:19.671Z,24.80
2019-02-26T06:54:54.800Z,25.40
2019-02-26T06:57:21.224Z,26.07
2019-02-26T06:59:53.651Z,25.52
2019-02-26T07:02:22.266Z,23.98
2019-02-26T07:04:51.379Z,25.40
2019-02-26T07:07:20.593Z,25.27
2019-02-26T07:09:50.523Z,26.30
2019-02-26T07:12:45.269Z,27.32
2019-02-26T07:15:31.578Z,25.10
2019-02-26T07:18:04.423Z,45.15
2019-02-26T07:20:34.119Z,49.83
2019-02-26T07:23:03.195Z,28.70
2019-02-26T07:25:34.534Z,28.17
2019-02-26T07:28:03.028Z,31.00
2019-02-26T07:30:34.706Z,30.08
2019-02-26T07:33:05.412Z,28.90
2019-02-26T07:35:37.363Z,28.77
2019-02-26T07:38:06.120Z,28.35
2019-02-26T07:40:37.780Z,26.75
2019-02-26T07:43:09.110Z,25.95
2019-02-26T07:45:36.519Z,27.15
2019-02-26T07:48:06.345Z,26.20
2019-02-26T07:50:38.273Z,25.57
2019-02-26T07:53:06.351Z,26.07
2019-02-26T07:55:37.677Z,24.82
2019-02-26T07:58:17.920Z,21.85
2019-02-26T08:00:49.720Z,21.40
2019-02-26T08:03:21.862Z,24.15
2019-02-26T08:05:54.163Z,21.48
2019-02-26T08:08:34.664Z,20.35
2019-02-26T08:11:04.823Z,25.20
2019-02-26T08:13:36.504Z,27.62
2019-02-26T08:16:05.805Z,31.42
2019-02-26T08:18:35.393Z,24.10
2019-02-26T08:21:05.250Z,20.23
2019-02-26T08:23:37.998Z,19.20
2019-02-26T08:26:08.594Z,19.55
2019-02-26T08:28:38.909Z,16.80
2019-02-26T08:31:13.369Z,18.73
2019-02-26T08:33:40.396Z,21.42
2019-02-26T08:36:09.181Z,19.95
2019-02-26T08:38:38.371Z,19.20
2019-02-26T08:41:07.977Z,19.98
2019-02-26T08:43:42.133Z,19.67
2019-02-26T08:46:11.665Z,18.70
2019-02-26T08:48:44.289Z,19.35
2019-02-26T08:51:15.787Z,20.20
2019-02-26T08:53:47.605Z,19.20
2019-02-26T08:56:23.620Z,20.70
2019-02-26T08:58:53.893Z,20.37
2019-02-26T09:01:24.425Z,19.48
2019-02-26T09:04:08.588Z,20.55
2019-02-26T09:06:37.683Z,20.90
2019-02-26T09:09:08.803Z,18.75
2019-02-26T09:11:38.872Z,20.08
2019-02-26T09:14:09.855Z,18.67
2019-02-26T09:16:39.917Z,17.82
2019-02-26T09:19:09.359Z,17.85
2019-02-26T09:21:39.492Z,18.25
2019-02-26T09:24:09.323Z,15.90
2019-02-26T09:26:39.344Z,17.45
2019-02-26T09:29:10.397Z,18.70
2019-02-26T09:31:57.039Z,18.15
2019-02-26T09:34:26.654Z,18.30
2019-02-26T09:36:58.101Z,18.35
2019-02-26T09:39:27.562Z,17.42
2019-02-26T09:41:59.397Z,16.42
2019-02-26T09:44:29.296Z,18.02
2019-02-26T09:47:00.572Z,18.45
2019-02-26T09:49:31.477Z,19.52
2019-02-26T09:52:01.550Z,18.67
2019-02-26T09:54:31.057Z,17.85
2019-02-26T09:57:00.641Z,16.67
2019-02-26T09:59:31.441Z,17.45
2019-02-26T10:02:10.805Z,17.00
2019-02-26T10:04:42.486Z,16.67
2019-02-26T10:07:13.794Z,17.60
2019-02-26T10:09:45.908Z,17.73
2019-02-26T10:12:15.648Z,17.57
2019-02-26T10:14:44.898Z,17.87
2019-02-26T10:17:16.447Z,16.90
2019-02-26T10:19:45.110Z,16.65
2019-02-26T10:22:13.924Z,17.48
2019-02-26T10:24:43.130Z,18.37
2019-02-26T10:27:20.448Z,18.73
2019-02-26T10:29:50.000Z,17.17
2019-02-26T10:32:19.915Z,18.15
2019-02-26T10:34:48.807Z,16.80
2019-02-26T10:37:17.945Z,19.00
2019-02-26T10:39:49.719Z,19.45
2019-02-26T10:42:18.514Z,25.10
2019-02-26T10:44:48.487Z,21.75
2019-02-26T10:47:19.973Z,19.27
2019-02-26T10:49:51.370Z,20.77
2019-02-26T10:52:21.627Z,18.00
2019-02-26T10:54:51.343Z,21.20
2019-02-26T10:57:21.072Z,19.57
2019-02-26T10:59:56.919Z,19.98
2019-02-26T11:02:25.676Z,18.80
2019-02-26T11:04:55.530Z,19.23
2019-02-26T11:07:26.469Z,20.62
2019-02-26T11:09:56.246Z,21.50
2019-02-26T11:12:28.551Z,20.77
2019-02-26T11:14:58.633Z,18.45
2019-02-26T11:17:28.987Z,20.30
2019-02-26T11:20:01.155Z,21.07
2019-02-26T11:22:31.184Z,20.50
2019-02-26T11:28:07.968Z,20.70
2019-02-26T11:30:37.788Z,21.05
2019-02-26T11:33:10.486Z,20.97
2019-02-26T11:35:39.698Z,22.02
2019-02-26T11:38:11.734Z,20.10
2019-02-26T11:40:40.613Z,21.75
2019-02-26T11:43:12.379Z,21.68
2019-02-26T11:45:41.964Z,19.70
2019-02-26T11:48:11.249Z,21.27
2019-02-26T11:50:44.195Z,21.10
2019-02-26T11:53:10.875Z,22.20
2019-02-26T11:55:39.683Z,22.82
2019-02-26T11:58:10.835Z,22.70
2019-02-26T12:00:57.028Z,20.62
2019-02-26T12:03:29.744Z,23.02
2019-02-26T12:05:58.471Z,21.65
2019-02-26T12:08:26.752Z,21.45
2019-02-26T12:11:01.063Z,18.98
2019-02-26T12:13:27.667Z,21.50
2019-02-26T12:15:56.672Z,22.50
2019-02-26T12:18:25.562Z,21.02
2019-02-26T12:20:54.533Z,28.23
2019-02-26T12:23:23.346Z,21.02
2019-02-26T12:25:53.640Z,21.65
2019-02-26T12:28:25.171Z,21.40
2019-02-26T12:30:53.621Z,20.20
2019-02-26T12:33:24.109Z,19.20
2019-02-26T12:35:56.310Z,20.68
2019-02-26T12:38:25.637Z,19.10
2019-02-26T12:40:54.436Z,20.30
2019-02-26T12:43:23.256Z,19.62
2019-02-26T12:45:55.255Z,20.68
2019-02-26T12:48:24.420Z,19.57
2019-02-26T12:50:55.651Z,18.92
2019-02-26T12:53:24.745Z,19.27
2019-02-26T12:55:54.689Z,20.15
2019-02-26T12:58:27.774Z,21.00
2019-02-26T13:00:56.844Z,19.98
2019-02-26T13:03:26.383Z,21.62
2019-02-26T13:05:56.303Z,20.27
2019-02-26T13:08:25.582Z,18.23
2019-02-26T13:10:56.116Z,19.07
2019-02-26T13:13:25.739Z,19.90
2019-02-26T13:15:54.548Z,18.05
2019-02-26T13:18:23.321Z,19.05
2019-02-26T13:20:57.189Z,19.62
2019-02-26T13:23:22.605Z,18.65
2019-02-26T13:25:51.742Z,18.55
2019-02-26T13:28:20.550Z,25.55
2019-02-26T13:30:49.346Z,18.52
2019-02-26T13:33:22.419Z,18.07
2019-02-26T13:35:52.407Z,17.60
2019-02-26T13:38:24.455Z,19.65
2019-02-26T13:40:50.133Z,20.10
2019-02-26T13:43:18.988Z,18.92
2019-02-26T13:45:47.871Z,20.65
2019-02-26T13:48:17.383Z,19.73
2019-02-26T13:50:46.175Z,19.25
2019-02-26T13:53:16.020Z,20.02
2019-02-26T13:55:45.278Z,19.65
2019-02-26T13:58:14.075Z,20.72
2019-02-26T14:00:43.386Z,20.00
2019-02-26T14:03:12.280Z,20.10
2019-02-26T14:05:42.696Z,19.67
2019-02-26T14:08:12.309Z,19.65
2019-02-26T14:10:41.472Z,18.67
2019-02-26T14:13:11.626Z,18.40
2019-02-26T14:15:41.394Z,16.97
2019-02-26T14:18:10.267Z,14.85
2019-02-26T14:20:39.792Z,16.25
2019-02-26T14:23:08.608Z,15.90
2019-02-26T14:25:37.645Z,12.43
2019-02-26T14:28:06.490Z,12.43
2019-02-26T14:30:35.272Z,14.25
2019-02-26T14:33:04.883Z,13.85
2019-02-26T14:35:34.741Z,13.45
2019-02-26T14:38:04.555Z,12.18
2019-02-26T14:40:34.483Z,12.13
2019-02-26T14:43:04.086Z,12.18
2019-02-26T14:45:36.870Z,11.85
2019-02-26T14:48:06.141Z,10.25
2019-02-26T14:50:35.396Z,12.07
2019-02-26T14:53:04.166Z,11.28
2019-02-26T14:55:33.533Z,11.05
2019-02-26T14:58:02.308Z,11.50
2019-02-26T15:00:31.452Z,11.78
2019-02-26T15:03:01.434Z,11.68
2019-02-26T15:05:32.327Z,12.50
2019-02-26T15:08:01.526Z,11.63
2019-02-26T15:10:30.620Z,11.00
2019-02-26T15:12:59.944Z,11.15
2019-02-26T15:15:28.820Z,11.45
2019-02-26T15:17:57.590Z,12.55
2019-02-26T15:20:26.411Z,13.13
2019-02-26T15:22:55.331Z,12.00
2019-02-26T15:25:24.275Z,11.05
2019-02-26T15:27:53.163Z,11.80
2019-02-26T15:30:22.022Z,10.95
2019-02-26T15:32:50.983Z,10.72
2019-02-26T15:35:19.863Z,10.80
2019-02-26T15:37:48.884Z,10.80
2019-02-26T15:40:17.812Z,13.28
2019-02-26T15:42:46.918Z,9.30
2019-02-26T15:45:18.082Z,8.88
2019-02-26T15:47:46.960Z,9.45
2019-02-26T15:50:16.029Z,8.05
2019-02-26T15:52:44.832Z,8.30
2019-02-26T15:55:15.846Z,7.65
2019-02-26T15:57:44.894Z,7.40
2019-02-26T16:00:17.685Z,8.65
2019-02-26T16:02:46.857Z,9.45
2019-02-26T16:05:15.849Z,8.08
2019-02-26T16:07:44.674Z,8.23
2019-02-26T16:10:13.704Z,9.23
2019-02-26T16:12:42.654Z,10.05
2019-02-26T16:15:12.258Z,10.20
2019-02-26T16:17:41.453Z,10.15
2019-02-26T16:20:12.860Z,10.00
2019-02-26T16:22:41.729Z,9.83
2019-02-26T16:25:10.679Z,10.15
2019-02-26T16:27:39.646Z,9.70
2019-02-26T16:30:14.786Z,9.95
2019-02-26T16:32:43.665Z,10.13
2019-02-26T16:35:12.703Z,11.12
2019-02-26T16:37:42.163Z,12.03
2019-02-26T16:40:11.115Z,10.78
2019-02-26T16:42:44.391Z,11.78
2019-02-26T16:45:13.760Z,10.93
2019-02-26T16:47:42.752Z,11.03
2019-02-26T16:50:13.585Z,11.93
2019-02-26T16:52:43.624Z,11.60
2019-02-26T16:55:14.108Z,11.95
2019-02-26T16:57:43.827Z,11.43
2019-02-26T17:00:15.673Z,13.05
2019-02-26T17:02:45.669Z,12.80
2019-02-26T17:05:15.200Z,13.43
2019-02-26T17:07:43.984Z,13.35
2019-02-26T17:10:14.981Z,12.35
2019-02-26T17:12:45.491Z,13.60
2019-02-26T17:15:24.015Z,12.70
2019-02-26T17:17:50.158Z,14.15
2019-02-26T17:20:19.579Z,15.05
2019-02-26T17:22:49.522Z,13.43
2019-02-26T17:25:18.286Z,14.87
2019-02-26T17:27:47.467Z,13.65
2019-02-26T17:30:16.820Z,15.65
2019-02-26T17:32:45.782Z,14.58
2019-02-26T17:35:15.251Z,16.40
2019-02-26T17:37:44.208Z,15.85
2019-02-26T17:40:13.856Z,15.80
2019-02-26T17:42:42.650Z,15.25
2019-02-26T17:45:13.677Z,14.50
2019-02-26T17:47:42.447Z,14.80
2019-02-26T17:50:14.210Z,14.63
2019-02-26T17:52:42.956Z,15.05
2019-02-26T17:55:11.869Z,15.80
2019-02-26T17:57:41.027Z,14.68
2019-02-26T18:00:12.016Z,13.58
2019-02-26T18:02:40.785Z,16.62
2019-02-26T18:05:10.752Z,15.68
2019-02-26T18:07:39.753Z,15.20
2019-02-26T18:10:12.909Z,14.78
2019-02-26T18:12:42.686Z,14.70
2019-02-26T18:15:16.556Z,15.75
2019-02-26T18:17:42.818Z,15.88
2019-02-26T18:20:14.054Z,15.80
2019-02-26T18:22:42.996Z,17.12
2019-02-26T18:25:12.640Z,15.53
2019-02-26T18:27:41.474Z,16.90
2019-02-26T18:30:16.026Z,17.57
2019-02-26T18:32:50.223Z,15.43
2019-02-26T18:35:15.384Z,16.20
2019-02-26T18:37:46.621Z,15.23
2019-02-26T18:40:15.516Z,15.63
2019-02-26T18:42:44.348Z,16.27
2019-02-26T18:45:16.027Z,17.77
2019-02-26T18:47:44.860Z,16.05
2019-02-26T18:50:13.775Z,16.23
2019-02-26T18:52:42.647Z,15.88
2019-02-26T18:55:13.564Z,16.50
2019-02-26T18:57:43.669Z,14.78
2019-02-26T19:00:15.856Z,14.55
2019-02-26T19:02:44.764Z,15.18
2019-02-26T19:05:13.758Z,15.48
2019-02-26T19:07:42.602Z,15.03
2019-02-26T19:10:17.766Z,14.98
2019-02-26T19:12:44.085Z,14.10
2019-02-26T19:15:15.401Z,15.08
2019-02-26T19:17:47.604Z,15.35
2019-02-26T19:20:18.547Z,15.85
2019-02-26T19:22:47.622Z,16.85
2019-02-26T19:25:16.901Z,17.85
2019-02-26T19:27:48.015Z,18.45
2019-02-26T19:30:18.102Z,14.87
2019-02-26T19:32:47.749Z,15.80
2019-02-26T19:35:17.344Z,14.83
2019-02-26T19:37:47.032Z,15.78
2019-02-26T19:40:17.996Z,15.38
2019-02-26T19:42:47.602Z,14.05
2019-02-26T19:45:17.657Z,16.25
2019-02-26T19:47:47.228Z,16.57
2019-02-26T19:50:16.798Z,18.52
2019-02-26T19:52:45.943Z,18.62
2019-02-26T19:55:18.311Z,16.55
2019-02-26T19:57:47.080Z,17.92
2019-02-26T20:00:19.674Z,16.87
2019-02-26T20:02:47.449Z,15.60
2019-02-26T20:05:16.640Z,16.87
2019-02-26T20:07:45.739Z,16.10
2019-02-26T20:10:15.779Z,15.95
2019-02-26T20:12:45.016Z,15.50
2019-02-26T20:15:13.925Z,16.20
2019-02-26T20:17:42.766Z,17.67
2019-02-26T20:20:13.050Z,17.20
2019-02-26T20:22:42.099Z,16.55
2019-02-26T20:25:14.134Z,17.80
2019-02-26T20:27:42.928Z,15.55
2019-02-26T20:30:14.477Z,15.13
2019-02-26T20:32:44.337Z,14.58
2019-02-26T20:35:15.955Z,16.05
2019-02-26T20:37:44.508Z,15.30
2019-02-26T20:40:16.387Z,17.02
2019-02-26T20:42:45.751Z,17.15
2019-02-26T20:45:18.055Z,18.67
2019-02-26T20:47:46.683Z,17.25
2019-02-26T20:50:19.990Z,17.40
2019-02-26T20:52:46.548Z,16.20
2019-02-26T20:55:19.185Z,16.45
2019-02-26T20:57:47.536Z,15.33
2019-02-26T21:00:17.536Z,16.25
2019-02-26T21:02:46.446Z,17.23
2019-02-26T21:05:15.650Z,20.70
2019-02-26T21:07:44.591Z,19.23
2019-02-26T21:10:15.419Z,21.45
2019-02-26T21:12:45.005Z,22.52
2019-02-26T21:15:15.636Z,19.95
2019-02-26T21:17:44.587Z,20.43
2019-02-26T21:20:13.565Z,18.45
2019-02-26T21:22:42.413Z,18.12
2019-02-26T21:25:11.489Z,17.95
2019-02-26T21:27:40.349Z,16.77
2019-02-26T21:30:12.079Z,19.15
2019-02-26T21:32:41.341Z,16.17
2019-02-26T21:35:10.283Z,17.35
2019-02-26T21:37:39.236Z,17.52
2019-02-26T21:40:09.403Z,17.05
2019-02-26T21:42:38.173Z,17.60
2019-02-26T21:45:08.369Z,17.57
2019-02-26T21:47:37.193Z,16.35
2019-02-26T21:50:06.773Z,18.52
2019-02-26T21:52:35.560Z,17.37
2019-02-26T21:55:04.630Z,16.75
2019-02-26T21:57:33.541Z,14.47
2019-02-26T22:00:05.107Z,14.85
2019-02-26T22:02:32.844Z,16.12
2019-02-26T22:05:04.977Z,14.70
2019-02-26T22:07:32.099Z,15.15
2019-02-26T22:10:00.898Z,16.67
2019-02-26T22:12:29.669Z,18.60
2019-02-26T22:14:58.431Z,20.85
2019-02-26T22:17:27.343Z,19.75
2019-02-26T22:19:56.104Z,18.80
2019-02-26T22:22:26.239Z,18.40
2019-02-26T22:24:55.713Z,17.60
2019-02-26T22:27:24.792Z,17.80
2019-02-26T22:29:53.543Z,17.60
2019-02-26T22:32:22.751Z,18.52
2019-02-26T22:34:53.560Z,17.20
2019-02-26T22:37:22.831Z,30.62
2019-02-26T22:39:53.598Z,20.20
2019-02-26T22:42:23.323Z,18.55
2019-02-26T22:44:54.631Z,27.27
2019-02-26T22:47:25.401Z,23.05
2019-02-26T22:49:55.322Z,19.35
2019-02-26T22:52:24.964Z,18.82
2019-02-26T22:54:54.901Z,17.67
2019-02-26T22:57:24.448Z,17.17
2019-02-26T23:00:00.454Z,17.32
2019-02-26T23:02:31.351Z,21.20
2019-02-26T23:05:00.251Z,18.50
2019-02-26T23:07:29.210Z,19.17
2019-02-26T23:09:58.842Z,19.73
2019-02-26T23:12:28.788Z,16.65
2019-02-26T23:15:00.290Z,18.85
2019-02-26T23:17:30.218Z,15.95
2019-02-26T23:20:00.384Z,17.55
2019-02-26T23:22:30.694Z,17.45
2019-02-26T23:25:00.999Z,19.00
2019-02-26T23:27:31.724Z,17.32
2019-02-26T23:30:01.758Z,21.02
2019-02-26T23:32:30.979Z,18.52
2019-02-26T23:35:04.909Z,19.35
2019-02-26T23:37:34.657Z,18.52
2019-02-26T23:40:04.922Z,18.40
2019-02-26T23:42:33.937Z,19.40
2019-02-26T23:45:02.886Z,20.90
2019-02-26T23:47:34.987Z,21.45
2019-02-26T23:50:02.609Z,18.95
2019-02-26T23:52:31.479Z,22.32
2019-02-26T23:55:00.289Z,20.60
2019-02-26T23:57:29.459Z,21.15
2019-02-26T23:59:58.701Z,19.27
